createdAt,value
2022-10-25T00:01:12.258Z,100170.28
2022-10-25T00:03:38.555Z,100172.88
2022-10-25T00:06:04.836Z,100164.91
2022-10-25T00:08:31.292Z,100165.53
2022-10-25T00:10:57.538Z,100173.50
2022-10-25T00:13:24.082Z,100169.06
2022-10-25T00:15:50.330Z,100175.06
2022-10-25T00:18:16.611Z,100167.47
2022-10-25T00:20:42.900Z,100167.84
2022-10-25T00:23:09.413Z,100167.13
2022-10-25T00:25:35.669Z,100178.13
2022-10-25T00:28:01.920Z,100170.06
2022-10-25T00:30:28.190Z,100182.00
2022-10-25T00:32:54.590Z,100174.66
2022-10-25T00:35:20.842Z,100175.94
2022-10-25T00:37:47.122Z,100181.97
2022-10-25T00:40:13.370Z,100177.09
2022-10-25T00:42:39.624Z,100173.03
2022-10-25T00:45:05.867Z,100176.59
2022-10-25T00:47:33.480Z,100176.59
2022-10-25T00:49:59.730Z,100179.66
2022-10-25T00:52:26.131Z,100180.63
2022-10-25T00:54:52.387Z,100184.84
2022-10-25T00:57:18.655Z,100182.41
2022-10-25T00:59:44.895Z,100190.31
2022-10-25T01:02:11.293Z,100187.38
2022-10-25T01:04:37.682Z,100189.25
2022-10-25T01:07:03.947Z,100189.53
2022-10-25T01:09:30.255Z,100176.31
2022-10-25T01:11:56.504Z,100181.47
2022-10-25T01:14:23.090Z,100170.00
2022-10-25T01:16:49.348Z,100177.34
2022-10-25T01:19:15.629Z,100176.13
2022-10-25T01:21:41.874Z,100163.19
2022-10-25T01:24:08.128Z,100169.03
2022-10-25T01:26:34.388Z,100165.63
2022-10-25T01:29:00.630Z,100166.59
2022-10-25T01:31:26.937Z,100162.41
2022-10-25T01:33:53.192Z,100162.88
2022-10-25T01:36:19.502Z,100161.75
2022-10-25T01:38:45.762Z,100164.81
2022-10-25T01:41:12.053Z,100166.78
2022-10-25T01:43:39.184Z,100166.28
2022-10-25T01:46:05.364Z,100161.66
2022-10-25T01:48:31.611Z,100174.84
2022-10-25T01:50:57.866Z,100156.97
2022-10-25T01:53:24.116Z,100159.66
2022-10-25T01:55:50.355Z,100166.81
2022-10-25T01:58:16.611Z,100159.38
2022-10-25T02:00:42.899Z,100164.19
2022-10-25T02:03:09.180Z,100173.63
2022-10-25T02:05:35.433Z,100172.78
2022-10-25T02:08:01.735Z,100181.19
2022-10-25T02:10:28.185Z,100171.34
2022-10-25T02:12:54.429Z,100173.56
2022-10-25T02:15:20.680Z,100181.28
2022-10-25T02:17:46.974Z,100173.72
2022-10-25T02:20:13.332Z,100175.63
2022-10-25T02:22:41.261Z,100181.34
2022-10-25T02:25:07.537Z,100174.63
2022-10-25T02:27:33.844Z,100176.09
2022-10-25T02:30:00.124Z,100179.06
2022-10-25T02:32:26.378Z,100169.25
2022-10-25T02:34:52.672Z,100176.31
2022-10-25T02:37:18.923Z,100181.00
2022-10-25T02:39:45.479Z,100178.56
2022-10-25T02:42:11.724Z,100175.56
2022-10-25T02:44:37.991Z,100174.63
2022-10-25T02:47:04.248Z,100170.25
2022-10-25T02:49:30.551Z,100161.84
2022-10-25T02:51:56.823Z,100169.56
2022-10-25T02:54:23.078Z,100169.09
2022-10-25T02:56:52.274Z,100169.38
2022-10-25T02:59:18.964Z,100170.44
2022-10-25T03:01:45.272Z,100173.66
2022-10-25T03:04:11.592Z,100169.50
2022-10-25T03:06:37.834Z,100181.94
2022-10-25T03:09:04.112Z,100185.94
2022-10-25T03:11:30.366Z,100184.84
2022-10-25T03:13:56.643Z,100187.75
2022-10-25T03:16:22.944Z,100198.28
2022-10-25T03:18:49.199Z,100180.31
2022-10-25T03:21:15.529Z,100191.91
2022-10-25T03:23:41.851Z,100190.81
2022-10-25T03:26:08.120Z,100195.34
2022-10-25T03:28:34.532Z,100200.59
2022-10-25T03:31:00.808Z,100193.41
2022-10-25T03:33:27.442Z,100199.13
2022-10-25T03:35:53.745Z,100199.22
2022-10-25T03:38:19.983Z,100195.69
2022-10-25T03:40:46.263Z,100195.59
2022-10-25T03:43:12.578Z,100198.47
2022-10-25T03:45:38.888Z,100202.59
2022-10-25T03:48:05.132Z,100202.69
2022-10-25T03:50:31.398Z,100200.63
2022-10-25T03:52:57.688Z,100207.75
2022-10-25T03:55:23.995Z,100211.91
2022-10-25T03:57:50.283Z,100206.44
2022-10-25T04:00:16.538Z,100216.19
2022-10-25T04:02:42.829Z,100227.94
2022-10-25T04:05:09.119Z,100210.47
2022-10-25T04:07:35.379Z,100214.66
2022-10-25T04:10:01.642Z,100224.44
2022-10-25T04:12:27.889Z,100227.28
2022-10-25T04:14:54.134Z,100228.34
2022-10-25T04:17:20.550Z,100232.31
2022-10-25T04:19:46.814Z,100231.38
2022-10-25T04:22:13.237Z,100233.25
2022-10-25T04:24:39.547Z,100240.00
2022-10-25T04:27:05.818Z,100238.72
2022-10-25T04:29:32.080Z,100246.69
2022-10-25T04:31:58.342Z,100246.34
2022-10-25T04:34:24.587Z,100241.47
2022-10-25T04:36:50.844Z,100243.66
2022-10-25T04:39:17.104Z,100238.31
2022-10-25T04:41:43.419Z,100235.97
2022-10-25T04:44:09.687Z,100241.63
2022-10-25T04:46:35.991Z,100236.59
2022-10-25T04:49:02.256Z,100248.81
2022-10-25T04:51:28.671Z,100240.00
2022-10-25T04:53:54.921Z,100239.16
2022-10-25T04:56:21.182Z,100245.06
2022-10-25T04:58:47.445Z,100252.00
2022-10-25T05:01:13.770Z,100245.88
2022-10-25T05:03:40.025Z,100248.44
2022-10-25T05:06:06.497Z,100247.59
2022-10-25T05:08:32.799Z,100250.91
2022-10-25T05:10:59.070Z,100258.13
2022-10-25T05:13:25.327Z,100246.75
2022-10-25T05:15:51.592Z,100252.84
2022-10-25T05:18:17.853Z,100249.44
2022-10-25T05:20:44.482Z,100248.69
2022-10-25T05:23:10.794Z,100255.16
2022-10-25T05:25:37.077Z,100254.69
2022-10-25T05:28:03.478Z,100263.13
2022-10-25T05:30:29.740Z,100262.97
2022-10-25T05:32:56.316Z,100266.63
2022-10-25T05:35:22.570Z,100273.72
2022-10-25T05:37:48.829Z,100278.59
2022-10-25T05:40:18.322Z,100290.09
2022-10-25T05:42:44.758Z,100280.44
2022-10-25T05:45:11.250Z,100287.88
2022-10-25T05:47:37.507Z,100297.19
2022-10-25T05:50:03.750Z,100289.50
2022-10-25T05:52:30.070Z,100296.09
2022-10-25T05:54:56.318Z,100295.69
2022-10-25T05:57:22.603Z,100292.75
2022-10-25T05:59:48.850Z,100293.41
2022-10-25T06:02:15.260Z,100298.97
2022-10-25T06:04:41.574Z,100296.53
2022-10-25T06:07:07.842Z,100302.72
2022-10-25T06:09:34.086Z,100312.00
2022-10-25T06:12:00.375Z,100307.59
2022-10-25T06:14:26.626Z,100311.50
2022-10-25T06:16:52.937Z,100311.84
2022-10-25T06:19:19.196Z,100314.19
2022-10-25T06:21:46.740Z,100314.22
2022-10-25T06:24:13.019Z,100318.16
2022-10-25T06:26:39.439Z,100324.31
2022-10-25T06:29:05.799Z,100328.84
2022-10-25T06:31:32.079Z,100341.94
2022-10-25T06:33:58.340Z,100339.75
2022-10-25T06:36:24.811Z,100339.22
2022-10-25T06:38:51.131Z,100331.38
2022-10-25T06:41:17.427Z,100333.97
2022-10-25T06:43:43.707Z,100333.50
2022-10-25T06:46:10.001Z,100338.53
2022-10-25T06:48:36.418Z,100334.22
2022-10-25T06:51:02.964Z,100339.00
2022-10-25T06:53:29.228Z,100339.91
2022-10-25T06:55:55.475Z,100351.91
2022-10-25T06:58:21.730Z,100345.19
2022-10-25T07:00:49.657Z,100347.25
2022-10-25T07:03:15.996Z,100348.94
2022-10-25T07:05:42.280Z,100355.28
2022-10-25T07:08:08.518Z,100354.50
2022-10-25T07:10:34.827Z,100346.50
2022-10-25T07:13:01.078Z,100343.88
2022-10-25T07:15:27.355Z,100345.06
2022-10-25T07:17:53.606Z,100346.09
2022-10-25T07:20:19.864Z,100349.47
2022-10-25T07:22:46.387Z,100351.06
2022-10-25T07:25:12.637Z,100349.19
2022-10-25T07:27:38.935Z,100356.72
2022-10-25T07:30:05.207Z,100360.75
2022-10-25T07:32:31.502Z,100359.06
2022-10-25T07:37:28.919Z,100363.84
2022-10-25T07:39:55.178Z,100358.28
2022-10-25T07:42:21.431Z,100355.78
2022-10-25T07:44:47.714Z,100353.41
2022-10-25T07:47:13.995Z,100359.81
2022-10-25T07:49:40.293Z,100359.09
2022-10-25T07:52:06.549Z,100359.22
2022-10-25T07:54:32.897Z,100364.91
2022-10-25T07:56:59.274Z,100355.75
2022-10-25T07:59:25.526Z,100360.41
2022-10-25T08:01:51.880Z,100359.19
2022-10-25T08:04:18.335Z,100355.28
2022-10-25T08:06:44.694Z,100364.75
2022-10-25T08:09:15.026Z,100361.91
2022-10-25T08:11:52.909Z,100357.09
2022-10-25T08:16:54.270Z,100362.50
2022-10-25T08:19:20.517Z,100373.63
2022-10-25T08:21:46.803Z,100372.06
2022-10-25T08:24:13.202Z,100363.34
2022-10-25T08:26:39.707Z,100365.59
2022-10-25T08:29:06.011Z,100367.16
2022-10-25T08:31:32.291Z,100367.03
2022-10-25T08:33:58.591Z,100361.91
2022-10-25T08:36:26.462Z,100367.88
2022-10-25T08:38:52.900Z,100366.81
2022-10-25T08:41:19.151Z,100364.38
2022-10-25T08:43:45.784Z,100371.84
2022-10-25T08:46:13.641Z,100365.00
2022-10-25T08:48:39.927Z,100385.25
2022-10-25T08:51:06.188Z,100384.56
2022-10-25T08:53:32.904Z,100383.09
2022-10-25T08:56:15.717Z,100386.91
2022-10-25T08:58:42.700Z,100384.25
2022-10-25T09:01:08.988Z,100381.97
2022-10-25T09:03:35.317Z,100390.22
2022-10-25T09:06:02.220Z,100382.09
2022-10-25T09:08:28.499Z,100384.38
2022-10-25T09:10:54.790Z,100380.66
2022-10-25T09:13:21.042Z,100387.59
2022-10-25T09:15:47.295Z,100384.69
2022-10-25T09:18:13.580Z,100388.31
2022-10-25T09:20:41.514Z,100392.44
2022-10-25T09:23:07.750Z,100385.88
2022-10-25T09:25:34.002Z,100394.81
2022-10-25T09:28:04.259Z,100384.81
2022-10-25T09:30:30.522Z,100387.84
2022-10-25T09:32:56.884Z,100399.41
2022-10-25T09:35:23.159Z,100406.06
2022-10-25T09:37:49.811Z,100397.97
2022-10-25T09:40:16.366Z,100408.56
2022-10-25T09:42:42.651Z,100408.72
2022-10-25T09:45:08.919Z,100403.75
2022-10-25T09:47:35.208Z,100395.06
2022-10-25T09:50:01.463Z,100410.34
2022-10-25T09:52:29.003Z,100413.34
2022-10-25T09:54:55.254Z,100415.88
2022-10-25T09:57:21.501Z,100421.66
2022-10-25T09:59:47.759Z,100415.03
2022-10-25T10:02:14.114Z,100421.91
2022-10-25T10:04:40.476Z,100416.38
2022-10-25T10:07:07.134Z,100424.34
2022-10-25T10:09:33.394Z,100425.47
2022-10-25T10:11:59.644Z,100422.47
2022-10-25T10:14:26.071Z,100421.97
2022-10-25T10:16:52.332Z,100418.19
2022-10-25T10:19:18.603Z,100426.88
2022-10-25T10:21:44.914Z,100420.03
2022-10-25T10:24:11.165Z,100421.72
2022-10-25T10:26:37.452Z,100421.09
2022-10-25T10:29:07.855Z,100425.72
2022-10-25T10:31:35.874Z,100423.88
2022-10-25T10:34:02.141Z,100423.91
2022-10-25T10:36:28.451Z,100431.81
2022-10-25T10:38:54.823Z,100433.50
2022-10-25T10:41:21.095Z,100431.69
2022-10-25T10:43:47.372Z,100426.22
2022-10-25T10:46:17.093Z,100426.81
2022-10-25T10:48:43.511Z,100414.41
2022-10-25T10:51:25.229Z,100422.63
2022-10-25T10:53:56.078Z,100426.94
2022-10-25T10:56:23.127Z,100424.88
2022-10-25T10:58:53.240Z,100426.88
2022-10-25T11:01:20.113Z,100431.31
2022-10-25T11:03:59.123Z,100433.41
2022-10-25T11:06:29.586Z,100438.50
2022-10-25T11:08:55.845Z,100433.13
2022-10-25T11:11:22.116Z,100439.97
2022-10-25T11:13:51.146Z,100440.84
2022-10-25T11:16:18.908Z,100441.66
2022-10-25T11:18:45.902Z,100438.28
2022-10-25T11:21:12.217Z,100439.88
2022-10-25T11:23:38.495Z,100432.75
2022-10-25T11:26:04.811Z,100433.78
2022-10-25T11:28:31.075Z,100438.78
2022-10-25T11:30:57.339Z,100433.31
2022-10-25T11:33:23.613Z,100440.28
2022-10-25T11:35:50.040Z,100441.00
2022-10-25T11:38:16.351Z,100433.09
2022-10-25T11:40:42.706Z,100437.56
2022-10-25T11:43:08.971Z,100436.63
2022-10-25T11:45:35.310Z,100443.34
2022-10-25T11:48:01.581Z,100451.94
2022-10-25T11:50:28.048Z,100437.28
2022-10-25T11:52:56.096Z,100442.56
2022-10-25T11:55:23.487Z,100435.81
2022-10-25T11:57:49.793Z,100447.06
2022-10-25T12:00:16.114Z,100449.84
2022-10-25T12:05:33.288Z,100441.28
2022-10-25T12:07:59.540Z,100446.47
2022-10-25T12:10:25.799Z,100444.13
2022-10-25T12:12:52.099Z,100447.63
2022-10-25T12:15:18.414Z,100434.78
2022-10-25T12:17:44.700Z,100441.88
2022-10-25T12:20:10.951Z,100449.16
2022-10-25T12:22:37.269Z,100444.13
2022-10-25T12:25:03.564Z,100441.28
2022-10-25T12:27:29.822Z,100442.47
2022-10-25T12:29:56.092Z,100445.75
2022-10-25T12:32:22.359Z,100433.00
2022-10-25T12:34:49.129Z,100437.81
2022-10-25T12:37:15.420Z,100451.09
2022-10-25T12:39:41.714Z,100443.25
2022-10-25T12:42:09.220Z,100443.38
2022-10-25T12:44:35.494Z,100444.75
2022-10-25T12:47:01.769Z,100455.03
2022-10-25T12:49:28.029Z,100441.53
2022-10-25T12:51:54.289Z,100453.63
2022-10-25T12:54:20.551Z,100445.38
2022-10-25T12:56:47.015Z,100447.47
2022-10-25T12:59:13.321Z,100448.81
2022-10-25T13:01:39.693Z,100454.88
2022-10-25T13:04:06.082Z,100454.34
2022-10-25T13:06:32.407Z,100447.13
2022-10-25T13:08:58.658Z,100447.72
2022-10-25T13:11:24.938Z,100445.56
2022-10-25T13:13:51.229Z,100446.22
2022-10-25T13:16:17.612Z,100442.72
2022-10-25T13:18:43.960Z,100440.53
2022-10-25T13:21:10.234Z,100439.13
2022-10-25T13:23:36.549Z,100444.47
2022-10-25T13:26:02.799Z,100442.72
2022-10-25T13:28:32.721Z,100444.66
2022-10-25T13:31:01.622Z,100450.16
2022-10-25T13:33:27.920Z,100451.28
2022-10-25T13:35:54.187Z,100457.00
2022-10-25T13:38:20.463Z,100455.81
2022-10-25T13:40:46.711Z,100457.22
2022-10-25T13:43:12.985Z,100444.38
2022-10-25T13:45:39.293Z,100447.69
2022-10-25T13:48:05.590Z,100453.34
2022-10-25T13:50:33.131Z,100455.16
2022-10-25T13:53:01.736Z,100463.22
2022-10-25T13:55:29.312Z,100474.09
2022-10-25T13:57:55.613Z,100469.78
2022-10-25T14:00:21.921Z,100473.13
2022-10-25T14:02:48.585Z,100460.84
2022-10-25T14:05:15.032Z,100465.44
2022-10-25T14:10:32.199Z,100470.50
2022-10-25T14:12:58.470Z,100471.03
2022-10-25T14:15:24.726Z,100474.28
2022-10-25T14:17:50.998Z,100467.44
2022-10-25T14:20:17.269Z,100471.28
2022-10-25T14:22:43.580Z,100470.91
2022-10-25T14:25:09.841Z,100467.38
2022-10-25T14:27:36.131Z,100473.56
2022-10-25T14:30:02.437Z,100475.78
2022-10-25T14:32:28.752Z,100475.13
2022-10-25T14:34:55.006Z,100476.28
2022-10-25T14:37:21.254Z,100483.97
2022-10-25T14:39:47.507Z,100474.88
2022-10-25T14:42:13.795Z,100486.59
2022-10-25T14:44:40.227Z,100481.19
2022-10-25T14:47:06.479Z,100476.63
2022-10-25T14:49:32.745Z,100478.94
2022-10-25T14:51:59.039Z,100479.75
2022-10-25T14:54:25.311Z,100472.81
2022-10-25T14:56:51.612Z,100476.88
2022-10-25T14:59:18.064Z,100480.88
2022-10-25T15:01:44.352Z,100475.50
2022-10-25T15:04:10.640Z,100475.13
2022-10-25T15:06:36.898Z,100474.72
2022-10-25T15:09:41.813Z,100472.31
2022-10-25T15:11:49.656Z,100478.97
2022-10-25T15:14:18.914Z,100485.47
2022-10-25T15:19:47.944Z,100484.63
2022-10-25T15:22:14.231Z,100482.72
2022-10-25T15:24:40.499Z,100479.69
2022-10-25T15:27:06.770Z,100474.84
2022-10-25T15:29:33.058Z,100478.47
2022-10-25T15:31:59.336Z,100486.34
2022-10-25T15:34:25.615Z,100475.88
2022-10-25T15:36:51.964Z,100476.94
2022-10-25T15:39:18.227Z,100478.13
2022-10-25T15:41:44.485Z,100477.13
2022-10-25T15:44:10.752Z,100478.84
2022-10-25T15:46:37.975Z,100478.00
2022-10-25T15:49:04.233Z,100469.91
2022-10-25T15:51:31.207Z,100474.00
2022-10-25T15:53:57.754Z,100475.91
2022-10-25T15:56:24.374Z,100476.78
2022-10-25T15:58:51.364Z,100473.41
2022-10-25T16:01:17.631Z,100472.25
2022-10-25T16:03:44.078Z,100485.94
2022-10-25T16:06:10.340Z,100490.38
2022-10-25T16:11:07.980Z,100490.66
2022-10-25T16:13:34.240Z,100480.84
2022-10-25T16:16:04.611Z,100481.09
2022-10-25T16:18:38.163Z,100484.38
2022-10-25T16:21:04.414Z,100489.03
2022-10-25T16:23:31.091Z,100483.91
2022-10-25T16:25:57.419Z,100492.16
2022-10-25T16:30:54.952Z,100495.84
2022-10-25T16:33:21.207Z,100495.53
2022-10-25T16:35:47.494Z,100501.97
2022-10-25T16:38:15.573Z,100500.59
2022-10-25T16:40:41.840Z,100508.28
2022-10-25T16:43:08.150Z,100511.97
2022-10-25T16:45:34.458Z,100507.84
2022-10-25T16:48:01.001Z,100503.59
2022-10-25T16:50:27.287Z,100506.72
2022-10-25T16:52:53.621Z,100515.38
2022-10-25T16:55:19.907Z,100518.25
2022-10-25T16:57:46.175Z,100518.72
2022-10-25T17:00:12.452Z,100530.59
2022-10-25T17:02:38.917Z,100529.19
2022-10-25T17:05:05.216Z,100532.72
2022-10-25T17:07:31.518Z,100536.97
2022-10-25T17:09:57.821Z,100538.09
2022-10-25T17:12:24.085Z,100538.53
2022-10-25T17:14:50.342Z,100547.00
2022-10-25T17:17:16.645Z,100544.38
2022-10-25T17:19:42.945Z,100545.31
2022-10-25T17:22:09.222Z,100546.97
2022-10-25T17:24:37.469Z,100557.19
2022-10-25T17:29:35.015Z,100554.25
2022-10-25T17:32:01.283Z,100564.19
2022-10-25T17:34:27.596Z,100564.38
2022-10-25T17:36:54.055Z,100565.72
2022-10-25T17:39:20.370Z,100571.28
2022-10-25T17:41:46.618Z,100568.22
2022-10-25T17:44:12.930Z,100575.69
2022-10-25T17:46:39.339Z,100563.66
2022-10-25T17:49:05.893Z,100571.91
2022-10-25T17:51:32.227Z,100571.34
2022-10-25T17:53:58.492Z,100560.16
2022-10-25T17:56:24.821Z,100561.28
2022-10-25T17:58:51.988Z,100571.19
2022-10-25T18:01:18.244Z,100573.13
2022-10-25T18:03:45.768Z,100562.97
2022-10-25T18:06:12.167Z,100572.06
2022-10-25T18:08:42.130Z,100575.72
2022-10-25T18:11:08.774Z,100567.50
2022-10-25T18:13:36.975Z,100574.72
2022-10-25T18:16:07.803Z,100580.63
2022-10-25T18:18:34.326Z,100578.16
2022-10-25T18:21:00.581Z,100577.53
2022-10-25T18:23:26.891Z,100579.88
2022-10-25T18:25:53.229Z,100582.78
2022-10-25T18:28:19.693Z,100583.53
2022-10-25T18:30:46.003Z,100587.84
2022-10-25T18:33:14.628Z,100578.53
2022-10-25T18:38:15.709Z,100575.34
2022-10-25T18:40:44.115Z,100574.97
2022-10-25T18:43:10.398Z,100575.50
2022-10-25T18:45:36.674Z,100577.78
2022-10-25T18:48:02.945Z,100579.88
2022-10-25T18:50:29.210Z,100568.13
2022-10-25T18:52:55.467Z,100569.81
2022-10-25T18:55:26.461Z,100579.03
2022-10-25T18:57:54.710Z,100569.38
2022-10-25T19:00:23.603Z,100583.72
2022-10-25T19:02:52.392Z,100581.22
2022-10-25T19:05:19.017Z,100587.56
2022-10-25T19:07:45.424Z,100577.13
2022-10-25T19:10:11.840Z,100583.97
2022-10-25T19:12:38.094Z,100581.81
2022-10-25T19:15:04.508Z,100583.00
2022-10-25T19:17:30.767Z,100571.88
2022-10-25T19:19:57.093Z,100583.13
2022-10-25T19:22:23.342Z,100571.75
2022-10-25T19:24:49.647Z,100572.53
2022-10-25T19:27:15.941Z,100582.03
2022-10-25T19:29:42.204Z,100582.50
2022-10-25T19:32:08.466Z,100581.28
2022-10-25T19:34:34.764Z,100581.94
2022-10-25T19:37:04.458Z,100585.56
2022-10-25T19:39:30.712Z,100593.06
2022-10-25T19:41:58.979Z,100583.56
2022-10-25T19:44:25.247Z,100580.19
2022-10-25T19:46:51.502Z,100578.94
2022-10-25T19:49:17.763Z,100577.03
2022-10-25T19:51:44.013Z,100577.78
2022-10-25T19:54:10.331Z,100586.66
2022-10-25T19:56:38.561Z,100590.81
2022-10-25T19:59:04.939Z,100593.22
2022-10-25T20:01:31.337Z,100590.53
2022-10-25T20:03:57.716Z,100595.78
2022-10-25T20:06:24.904Z,100602.19
2022-10-25T20:08:54.931Z,100603.19
2022-10-25T20:11:21.199Z,100603.19
2022-10-25T20:13:47.476Z,100603.19
2022-10-25T20:16:14.027Z,100594.69
2022-10-25T20:18:40.286Z,100608.97
2022-10-25T20:21:07.284Z,100603.78
2022-10-25T20:23:33.534Z,100603.34
2022-10-25T20:25:59.786Z,100600.75
2022-10-25T20:28:26.060Z,100603.13
2022-10-25T20:30:52.316Z,100613.38
2022-10-25T20:33:20.372Z,100614.13
2022-10-25T20:35:46.627Z,100603.34
2022-10-25T20:38:12.949Z,100605.31
2022-10-25T20:40:39.242Z,100605.13
2022-10-25T20:43:05.489Z,100604.00
2022-10-25T20:45:31.758Z,100606.66
2022-10-25T20:47:58.008Z,100609.56
2022-10-25T20:50:24.264Z,100607.16
2022-10-25T20:53:09.370Z,100607.50
2022-10-25T20:55:36.676Z,100604.72
2022-10-25T20:58:02.971Z,100609.78
2022-10-25T21:00:29.274Z,100618.28
2022-10-25T21:02:55.530Z,100615.59
2022-10-25T21:05:21.787Z,100618.38
2022-10-25T21:07:48.368Z,100614.28
2022-10-25T21:10:14.779Z,100608.59
2022-10-25T21:12:41.084Z,100610.41
2022-10-25T21:15:11.804Z,100611.41
2022-10-25T21:17:38.641Z,100608.81
2022-10-25T21:20:04.924Z,100612.34
2022-10-25T21:22:31.176Z,100618.81
2022-10-25T21:24:57.437Z,100625.84
2022-10-25T21:27:23.732Z,100625.91
2022-10-25T21:29:50.062Z,100622.06
2022-10-25T21:32:16.347Z,100626.56
2022-10-25T21:34:42.600Z,100626.38
2022-10-25T21:37:08.880Z,100634.22
2022-10-25T21:39:35.171Z,100631.00
2022-10-25T21:42:01.424Z,100623.13
2022-10-25T21:44:28.740Z,100626.88
2022-10-25T21:46:55.036Z,100622.16
2022-10-25T21:49:21.388Z,100622.06
2022-10-25T21:51:47.783Z,100628.09
2022-10-25T21:54:14.083Z,100629.81
2022-10-25T21:56:40.336Z,100627.16
2022-10-25T21:59:06.598Z,100632.78
2022-10-25T22:01:33.020Z,100634.22
2022-10-25T22:03:59.375Z,100619.72
2022-10-25T22:06:25.654Z,100619.72
2022-10-25T22:08:55.898Z,100625.09
2022-10-25T22:11:22.178Z,100631.97
2022-10-25T22:13:48.429Z,100633.03
2022-10-25T22:16:14.681Z,100629.16
2022-10-25T22:18:40.959Z,100635.78
2022-10-25T22:21:07.280Z,100627.50
2022-10-25T22:23:33.526Z,100630.41
2022-10-25T22:26:00.097Z,100628.41
2022-10-25T22:28:26.348Z,100626.50
2022-10-25T22:30:52.595Z,100629.88
2022-10-25T22:33:18.843Z,100628.41
2022-10-25T22:35:45.156Z,100629.25
2022-10-25T22:38:11.411Z,100629.47
2022-10-25T22:40:37.684Z,100633.56
2022-10-25T22:43:04.244Z,100627.94
2022-10-25T22:45:30.514Z,100627.25
2022-10-25T22:47:56.771Z,100618.97
2022-10-25T22:50:23.029Z,100617.63
2022-10-25T22:52:49.280Z,100626.13
2022-10-25T22:55:15.541Z,100619.81
2022-10-25T22:57:41.786Z,100627.94
2022-10-25T23:00:08.034Z,100622.03
2022-10-25T23:02:34.296Z,100625.16
2022-10-25T23:05:00.546Z,100626.22
2022-10-25T23:07:26.961Z,100632.28
2022-10-25T23:09:53.698Z,100630.81
2022-10-25T23:12:19.950Z,100628.91
2022-10-25T23:14:46.196Z,100624.53
2022-10-25T23:17:12.479Z,100632.16
2022-10-25T23:19:38.736Z,100623.81
2022-10-25T23:22:04.999Z,100627.38
2022-10-25T23:24:31.264Z,100632.66
2022-10-25T23:26:57.506Z,100629.59
2022-10-25T23:29:23.769Z,100628.41
2022-10-25T23:31:50.026Z,100631.13
2022-10-25T23:34:16.336Z,100627.75
2022-10-25T23:36:42.622Z,100616.31
2022-10-25T23:39:08.893Z,100620.50
2022-10-25T23:41:35.190Z,100615.13
2022-10-25T23:44:01.434Z,100617.53
2022-10-25T23:46:27.676Z,100623.97
2022-10-25T23:48:56.019Z,100618.22
2022-10-25T23:51:22.340Z,100623.38
2022-10-25T23:53:48.795Z,100626.84
2022-10-25T23:56:15.058Z,100629.53
2022-10-25T23:58:41.338Z,100622.84
